Preview of NWS' New Version of Forecast
This preview is not operational and should not be used for support decisions.
Latest weather observations around

WX6HNX-15 Boron (AU536)

Using English Units (Switch to International System of Units)
Date/ Time (PDT) Wind (mph) Vis. (mi) Weather Sky Cond. Temp (°F) Rel. Humidity Wind Chill (°F) Heat Index (°F) Pressure Precip. (in)
Air Dwpt 6 hour Altimeter (inHg) Sea level (inHg) 1 hr 3 hr 6 hr
Max Min
Aug 25 21:23 WSW 10   Clear   85 46     26%   82          
Aug 25 21:08 WSW 10   Clear   85 46     26%   82          
Aug 25 20:53 WSW 8   Clear   86 46     25%   83          
Aug 25 19:19 W 12   Clear   94 44     18%   90          
Aug 25 19:07 W 11   Clear   95 43     17%   91          
Aug 25 18:19 WNW 14   Clear   99 45     16%   95          
Aug 25 18:01 WNW 12   Clear   100 44     15%   96          
Aug 25 17:55 W 12   Clear   100 44     15%   96          
Aug 25 17:49 WNW 13   Clear   101 45     15%   97          
Aug 25 17:43 WNW 14   Clear   101 45     15%   97          
Aug 25 17:37 WNW 17   Clear   102 44     14%   98          
Aug 25 17:34 WNW 13   Clear   102 44     14%   98          
Aug 25 17:25 WNW 15   Clear   102 46     15%   98          
Aug 25 17:22 W 14   Clear   102 46     15%   98          
Aug 25 17:19 WNW 13   Clear   102 46     15%   98          
Aug 25 17:13 W 13   Clear   102 46     15%   98          
Aug 25 17:07 WNW 14   Clear   102 46     15%   98          
Aug 25 17:04 W 12   Clear   102 46     15%   98          
Aug 25 16:58 W 12   Clear   102 44     14%   98          
Aug 25 16:52 W 18   Clear   103 45     14%   99          
Aug 25 16:43 W 14   Clear   103 45     14%   99          
Aug 25 16:37 W 11   Clear   102 46     15%   98          
Aug 25 16:34 W 6   Clear   102 46     15%   98          
Aug 25 16:28 W 11   Clear   103 46     15%   99          
Aug 25 16:16 WNW 13   Clear   106 47     14%   102          
Aug 25 16:07 WNW 11   Clear   106 47     14%   102          
Aug 25 16:01 NW 10   Clear   105 46     14%   101          
Aug 25 15:55 W 3   Clear   106 47     14%   102          
Aug 25 15:52 WNW 6   Clear   106 47     14%   102          
Aug 25 15:34 WNW 7   Clear   106 47     14%   102          
Aug 25 15:16 NW 12   Clear   104 49     16%   101          
Aug 25 15:13 WNW 7   Clear   103 48     16%   100          
Aug 25 15:04 SW 3   Clear   103 48     16%   100          
Aug 25 14:58 W 8   Clear   103 48     16%   100          
Aug 25 14:52 SW 3   Clear   102 49     17%   99          
Aug 25 14:49 SW 5   Clear   102 47     16%   98          
Aug 25 14:41 W 7   Clear   102 49     17%   99          
Aug 25 14:37 WSW 7   Clear   101 48     17%   98          
Aug 25 14:34 SW 8   Clear   100 47     17%   96          
Aug 25 14:25 WSW 12   Clear   102 49     17%   99          
Aug 25 14:22 WSW 10   Clear   102 49     17%   99          
Aug 25 14:19 WSW 9   Clear   102 49     17%   99          
Aug 25 14:13 WSW 6   Clear   102 49     17%   99          
Aug 25 14:04 WSW 9   Clear   102 49     17%   99          
Aug 25 13:58 SW 10   Clear   102 49     17%   99          
Aug 25 13:46 SW 11   Clear   101 48     17%   98          
Aug 25 13:40 WSW 11   Clear   101 46     16%   97          
Aug 25 13:34 SW 9   Clear   102 47     16%   98          
Aug 25 13:29 WNW 7   Clear   102 49     17%   99          
Aug 25 13:23 WSW 9   Clear   102 49     17%   99          
Aug 25 13:17 WNW 9   Clear   101 48     17%   98          
Aug 25 13:11 WSW 8   Clear   100 49     18%   97          
Aug 25 13:08 WNW 10   Clear   100 49     18%   97          
Aug 25 13:02 WSW 9   Clear   100 47     17%   96          
Aug 25 12:59 WNW 9   Clear   99 48     18%   96          
Aug 25 12:53 W 5   Clear   100 47     17%   96          
Aug 25 12:47 SSW 9   Clear   99 48     18%   96          
Aug 25 12:41 WSW 7   Clear   99 48     18%   96          
Aug 25 12:38 WNW 10   Clear   99 48     18%   96          
Aug 25 12:16 SW 9   Clear   97 48     19%   94          
Aug 25 12:10 SW 8   Clear   96 47     19%   92          
Aug 25 12:04 WSW 9   Clear   96 48     20%   93          
Aug 25 11:36 W 7   Clear   95 48     20%   91          
Aug 25 11:18 WSW 6   Clear   93 48     22%   90          
Aug 25 11:08 W 7   Clear   93 48     22%   90          
Aug 25 10:59 WSW 8   Clear   92 48     22%   89          
Aug 25 10:53 W 7   Clear   91 47     22%   88          
Aug 25 10:47 WSW 9   Clear   91 47     22%   88          
Aug 25 10:44 W 7   Clear   91 47     22%   88          
Aug 25 10:32 WSW 9   Clear   90 48     24%   87          
Aug 25 10:29 W 8   Clear   89 46     23%   86          
Aug 25 10:11 WSW 11   Clear   88 51     28%   85          
Aug 25 09:59 WSW 8   Clear   88 53     30%   86          
Aug 25 09:53 WSW 8   Clear   87 52     30%   85          
Aug 25 09:41 WSW 9   Clear   86 53     32%   84          
Aug 25 09:35 WSW 7   Clear   86 54     34%   84          
Aug 25 09:29 WSW 9   Clear   85 54     35%   83          
Aug 25 09:23 WSW 9   Clear   85 55     36%   84          
Aug 25 09:14 WSW 6   Clear   84 55     37%   83          
Aug 25 09:05 WSW 7   Clear   84 56     38%   83          
Aug 25 08:59 WSW 7   Clear   83 55     38%   82          
Aug 25 08:53 WSW 9   Clear   83 55     38%   82          
Aug 25 08:44 WSW 5   Clear   82 54     38%   81          
Aug 25 08:38 WSW 7   Clear   82 55     39%   81          
Aug 25 08:29 WSW 5   Clear   81 54     39%   81          
Aug 25 08:23 WSW 8   Clear   80 53     39%   80          
Aug 25 08:14 WSW 8   Clear   80 53     40%   80          
Aug 25 08:05 WSW 7   Clear   79 53     40%   78          
Aug 25 07:59 W 3   Clear   79 53     41%   79          
Aug 25 07:53 WSW 5   Clear   78 52     41%   77          
Aug 25 07:47 W 5   Clear   78 53     42%   77          
Aug 25 07:38 WNW 3   Clear   76 51     42%   75          
Aug 25 07:32 W 5   Clear   76 51     42%   75          
Aug 25 07:26 WNW 2   Clear   75 50     42%   74          
Aug 25 07:14 WNW 2   Clear   74 50     43%   73          
Aug 25 07:08 WNW 2   Clear   74 50     43%   73          
Aug 25 07:02 WNW 3   Clear   74 51     44%   73          
Aug 25 06:59 W 2   Clear   73 51     46%   72          
Aug 25 06:53 W 3   Clear   72 50     46%   71          
Aug 25 06:47 W 4   Clear   71 49     46%   70          
Aug 25 06:44 W 4   Clear   71 49     46%   70          
Aug 25 06:38 WNW 3   Clear   71 49     46%   70          
Aug 25 06:20 WSW 2   Clear   70 49     47%              
Aug 25 06:17 W 1   Clear   70 48     46%              
Aug 25 06:14 Calm   Clear   70 48     46%              
Aug 25 06:08 Calm   Clear   70 47     44%              
Aug 25 06:02 WNW 1   Clear   71 47     43%   70          
Aug 25 05:59 W 1   Clear   71 47     43%   70          
Aug 25 05:53 W 1   Clear   71 47     43%   70          
Aug 25 05:47 W 1   Clear   71 47     42%   70          
Aug 25 05:41 W 1   Clear   71 46     41%   70          
Aug 25 05:08 WNW 3   Clear   72 47     41%   71          
Aug 25 04:47 Calm   Clear   72 47     41%   71          
Aug 25 04:41 W 3   Clear   72 47     41%   71          
Aug 25 04:35 WNW 2   Clear   71 47     42%   70          
Aug 25 04:26 W 3   Clear   71 47     42%   70          
Aug 25 04:23 WNW 3   Clear   71 47     42%   70          
Aug 25 03:41 WNW 2   Clear   72 46     40%   71          
Aug 25 03:38 W 2   Clear   72 46     39%   71          
Notice The following observation data may not be complete
Aug 25 03:32 W 2   Clear            %              
Aug 25 03:29 W 2   Clear   73 47     39%   72          
Aug 25 03:23 W 3   Clear   73 47     39%   72          
Aug 25 03:17 W 3   Clear   73 47     39%   72          
Aug 25 03:14 W 3   Clear   73 47     39%   72          
Aug 25 03:08 W 4   Clear   73 47     39%   72          
Aug 25 03:02 WNW 3   Clear   74 47     38%   73          
Aug 25 02:21 WNW 5   Clear   77 45     32%   76          
Aug 25 02:18 W 4   Clear   77 45     32%   76          
Aug 25 02:07 WSW 3   Clear   78 45     31%   77          
Aug 25 02:01 WSW 4   Clear   78 45     31%   77          
Aug 25 01:58 WSW 7   Clear   78 44     30%   77          
Aug 25 01:52 WSW 5   Clear   78 43     29%   77          
Aug 25 01:49 WSW 7   Clear   78 43     29%   77          
Aug 25 01:43 WSW 5   Clear   78 43     29%   77          
Aug 25 01:37 WSW 5   Clear   78 42     28%   77          
Aug 25 01:34 WSW 6   Clear   78 43     29%   77          
Aug 25 01:28 WSW 5   Clear   78 43     29%   77          
Aug 25 01:20 WSW 5   Clear   78 43     29%   77          
Aug 25 01:17 W 4   Clear   78 43     29%   77          
Aug 25 01:08 WSW 6   Clear   78 43     29%   77          
Aug 25 00:59 WSW 6   Clear   78 44     30%   77          
Aug 25 00:41 WSW 5   Clear   78 45     31%   77          
Aug 25 00:35 WSW 4   Clear   78 45     31%   77          
Aug 25 00:26 WSW 5   Clear   78 46     32%   77          
Aug 25 00:23 WSW 3   Clear   78 46     32%   77          
Aug 25 00:15 WSW 4   Clear   78 46     32%   77          
Aug 25 00:09 WSW 5   Clear   78 46     32%   77          
Aug 25 00:00 W 3   Clear   79 46     31%   78          
Aug 24 23:57 W 6   Clear   79 46     31%   78          
Aug 24 23:45 WSW 6   Clear   80 47     31%   79          
Aug 24 23:42 WSW 7   Clear   80 47     31%   79          
Aug 24 23:39 WSW 6   Clear   80 47     31%   79          
Aug 24 23:30 WSW 8   Clear   80 47     31%   79          
Aug 24 23:27 WSW 6   Clear   80 47     31%   79          
Aug 24 23:18 WSW 7   Clear   80 48     33%   79          
Aug 24 23:12 WSW 7   Clear   80 49     34%   79          
Aug 24 23:09 WSW 8   Clear   80 49     34%   79          
Aug 24 23:03 WSW 7   Clear   80 49     34%   79          
Aug 24 22:57 WSW 7   Clear   80 49     34%   79          
Aug 24 22:54 SW 8   Clear   80 50     35%   79          
Aug 24 22:48 WSW 8   Clear   80 50     35%   79          
Aug 24 22:41 WSW 7   Clear   80 51     36%   79          
Aug 24 22:38 WSW 7   Clear   80 51     36%   79          
Aug 24 22:35 WSW 6   Clear   80 51     36%   79          
Aug 24 22:29 WSW 6   Clear   80 50     35%   79          
Aug 24 22:23 WSW 5   Clear   80 50     35%   79          
Aug 24 22:20 WSW 6   Clear   80 50     35%   79          
Aug 24 22:14 WSW 6   Clear   81 50     34%   80          
Aug 24 22:08 WSW 8   Clear   81 49     33%   80          
Aug 24 22:05 WSW 9   Clear   81 49     33%   80          
Aug 24 21:59 W 6   Clear   81 48     32%   80          
Aug 24 21:53 WSW 8   Clear   82 48     31%   81          
Aug 24 21:50 WSW 8   Clear   82 48     31%   81          
Aug 24 21:44 WSW 8   Clear   82 48     31%   81          
Aug 24 21:38 WSW 8   Clear   82 47     29%   80          
Aug 24 21:35 WSW 8   Clear   83 47     29%   81          
Aug 24 21:29 WSW 9   Clear   83 47     28%   81          
Aug 24 21:23 WSW 10   Clear   83 46     27%   81          
Aug 24 21:20 WSW 9   Clear   83 46     27%   81          
Aug 24 21:14 WSW 10   Clear   84 45     26%   82          
Aug 24 21:08 WSW 8   Clear   84 44     25%   82          
Aug 24 21:05 WSW 9   Clear   84 43     24%   82          
Aug 24 20:59 WSW 10   Clear   85 42     22%   82          
Aug 24 20:53 WSW 10   Clear   85 42     22%   82          
Aug 24 20:50 WSW 9   Clear   85 41     21%   82          
Aug 24 18:32 WSW 11   Clear   94 39     15%   90          
Aug 24 18:29 WSW 11   Clear   94 39     15%   90          
Aug 24 18:23 WSW 12   Clear   95 38     14%   91          
Aug 24 18:15 W 11   Clear   95 36     13%   90          
Aug 24 18:12 W 11   Clear   95 38     14%   91          
Aug 24 18:09 WSW 13   Clear   95 38     14%   91          
Aug 24 17:57 W 12   Clear   96 39     14%   91          
Aug 24 17:27 W 10   Clear   99 41     14%   95          
Aug 24 17:24 W 9   Clear   99 43     15%   95          
Aug 24 17:07 W 6   Clear   100 40     13%   95          
Aug 24 16:55 W 9   Clear   102 42     13%   97          
Aug 24 16:52 WSW 10   Clear   102 40     12%   97          
Aug 24 16:43 NNE 1   Clear   103 41     12%   98          
Aug 24 16:37 NW 1   Clear   101 39     12%   96          
Aug 24 16:31 WSW 4   Clear   101 39     12%   96          
Aug 24 16:28 WSW 3   Clear   101 39     12%   96          
Aug 24 16:22 WNW 3   Clear   101 41     13%   96          
Aug 24 16:19 W 7   Clear   101 41     13%   96          
Aug 24 16:13 WNW 1   Clear   102 42     13%   97          
Aug 24 15:40 WNW 3   Clear   101 41     13%   96          
Aug 24 14:43 WNW 1   Clear   98 42     15%   94          
Aug 24 14:37 SW 3   Clear   98 42     15%   94          
Aug 24 14:34 WNW 4   Clear   98 42     15%   94          
Aug 24 14:25 NNW 1   Clear   98 42     15%   94          
Aug 24 14:22 WNW 3   Clear   98 42     15%   94          
Aug 24 14:16 WSW 4   Clear   99 43     15%   95          
Aug 24 14:13 WSW 2   Clear   99 43     15%   95          
Aug 24 14:04 NE 4   Clear   101 43     14%   97          
Aug 24 13:58 NNE 3   Clear   101 43     14%   97          
Aug 24 13:49 ENE 4   Clear   101 43     14%   97          
Aug 24 13:42 NE 4   Clear   100 42     14%   96          
Aug 24 13:39 ENE 4   Clear   99 41     14%   95          
Aug 24 13:33 ENE 2   Clear   98 41     14%   93          
Aug 24 13:27 SSE 1   Clear   97 43     16%   93          
Aug 24 13:21 SE 1   Clear   97 43     16%   93          
Aug 24 13:18 N 2   Clear   97 45     17%   93          
Aug 24 13:12 S 1   Clear   96 44     17%   92          
Aug 24 13:06 E 4   Clear   96 44     17%   92          
Aug 24 13:00 WSW 2   Clear   96 43     16%   92          
Aug 24 12:57 WSW 4   Clear   97 43     16%   93          
Aug 24 12:54 SSE 3   Clear   97 43     16%   93          
Aug 24 12:47 Calm   Clear   97 45     17%   93          
Aug 24 12:44 NE 1   Clear   97 45     17%   93          
Aug 24 12:38 NE 3   Clear   96 46     18%   92          
Aug 24 12:29 E 2   Clear   95 46     19%   91          
Aug 24 12:20 Calm   Clear   94 47     20%   90          
Aug 24 12:11 S 3   Clear   96 47     19%   92          
Aug 24 12:08 ESE 3   Clear   96 48     20%   93          
Aug 24 12:02 E 2   Clear   96 48     20%   93          
Aug 24 11:56 E 1   Clear   95 49     21%   92          
Aug 24 11:53 E 2   Clear   94 49     22%   91          
Aug 24 11:47 SE 4   Clear   93 48     22%   90          
Aug 24 10:46 N 1   Clear   90 49     25%   87          
Aug 24 10:31 WSW 1   Clear   88 50     27%   85          
Aug 24 10:28 Calm   Clear   88 50     27%   85          
Aug 24 10:16 W 2   Clear   87 51     29%   85          
Aug 24 09:10 Calm   Clear   83 51     33%   81          
Aug 24 08:17 Calm   Clear   78 48     35%   77          
Aug 24 08:02 E 1   Clear   75 46     36%   74          
Aug 24 07:59 E 1   Clear   74 45     36%   73          
Aug 24 07:44 E 1   Clear   71 43     37%   70          
Aug 24 07:38 E 1   Clear   70 43     38%              
Aug 24 07:32 E 3   Clear   69 44     41%              
Aug 24 07:29 E 2   Clear   68 45     43%              
Aug 24 07:23 E 2   Clear   67 43     42%              
Aug 24 07:17 E 2   Clear   66 43     43%              
Aug 24 07:14 E 1   Clear   65 42     43%              
Aug 24 07:08 Calm   Clear   65 42     43%              
Aug 24 06:26 E 1   Clear   62 41     46%              
Aug 24 06:23 Calm   Clear   62 40     45%              
Aug 24 06:14 E 1   Clear   62 40     45%              
Aug 24 06:05 E 1   Clear   63 41     44%              
Aug 24 06:00 E 1   Clear   63 41     44%              
Aug 24 05:51 E 1   Clear   63 41     44%              
Aug 24 05:45 E 2   Clear   63 40     43%              
Aug 24 05:39 E 2   Clear   63 40     43%              
Aug 24 05:30 E 4   Clear   64 41     43%              
Aug 24 05:24 E 5   Clear   64 41     43%              
Aug 24 05:18 E 3   Clear   64 41     43%              
Aug 24 05:12 E 2   Clear   64 41     43%              
Aug 24 05:09 E 1   Clear   65 42     43%              
Aug 24 05:03 E 2   Clear   65 42     43%              
Aug 24 05:00 E 2   Clear   65 42     43%              
Aug 24 04:52 E 2   Clear   65 42     43%              
Aug 24 04:49 E 2   Clear   65 43     44%              
Aug 24 04:43 E 3   Clear   66 45     46%              
Aug 24 04:37 W 2   Clear   66 45     47%              
Aug 24 04:34 Calm   Clear   66 45     47%              
Aug 24 04:28 Calm   Clear   66 45     47%              
Aug 24 04:22 W 2   Clear   67 46     46%              
Aug 24 04:19 W 1   Clear   67 46     46%              
Aug 24 04:13 W 1   Clear   67 46     46%              
Aug 24 04:07 W 1   Clear   68 46     45%              
Aug 24 04:04 W 1   Clear   68 45     44%              
Aug 24 03:58 W 2   Clear   68 45     43%              
Aug 24 03:52 W 2   Clear   69 45     42%              
Aug 24 03:49 W 1   Clear   69 45     42%              
Aug 24 03:38 W 2   Clear   70 45     40%              
Aug 24 03:32 W 1   Clear   71 45     39%   70          
Aug 24 03:29 W 1   Clear   71 44     38%   70          
Aug 24 03:20 WSW 1   Clear   73 44     35%   72          
Aug 24 03:17 Calm   Clear   73 44     35%   72          
Aug 24 03:14 WSW 2   Clear   73 44     35%   72          
Aug 24 03:08 W 1   Clear   74 44     34%   73          
Aug 24 02:59 WSW 4   Clear   75 45     34%   74          
Aug 24 02:53 WSW 3   Clear   75 45     34%   74          
Aug 24 02:47 WSW 5   Clear   75 44     33%   74          
Aug 24 02:41 WSW 4   Clear   75 44     33%   74          
Aug 24 02:38 WSW 5   Clear   75 44     33%   74          
Aug 24 02:34 WSW 4   Clear   74 43     33%   73          
Aug 24 02:28 WSW 4   Clear   74 43     33%   73          
Aug 24 02:22 SW 4   Clear   72 42     34%   70          
Aug 24 02:20 WSW 3   Clear   72 42     34%   70          
Aug 24 02:14 SW 1   Clear   72 40     31%   70          
Aug 24 02:07 Calm   Clear   72 39     30%   70          
Aug 24 02:04 Calm   Clear   73 40     30%   71          
Aug 24 01:58 Calm   Clear   74 40     29%   72          
Aug 24 01:52 W 1   Clear   74 40     29%   72          
Aug 24 01:49 Calm   Clear   75 41     29%   74          
Aug 24 01:43 SW 1   Clear   75 41     29%   74          
Aug 24 01:37 SW 4   Clear   75 40     28%   74          
Aug 24 01:34 SW 4   Clear   75 40     28%   74          
Aug 24 01:28 WSW 4   Clear   75 41     29%   74          
Aug 24 01:21 SW 1   Clear   75 41     29%   74          
Aug 24 01:18 Calm   Clear   76 41     29%   75          
Aug 24 01:12 SW 1   Clear   76 41     29%   75          
Aug 24 01:09 SW 1   Clear   76 41     29%   75          
Aug 24 01:03 WSW 6   Clear   76 41     29%   75          
Aug 24 00:57 SW 7   Clear   76 43     31%   75          
Aug 24 00:51 SW 5   Clear   75 42     31%   74          
Aug 24 00:48 SW 4   Clear   75 42     31%   74          
Aug 24 00:42 S 3   Clear   74 42     32%   73          
Aug 24 00:39 S 2   Clear   74 42     32%   73          
Aug 24 00:33 S 2   Clear   74 42     32%   73          
Aug 24 00:27 SSW 3   Clear   74 41     31%   73          
Aug 24 00:24 WSW 1   Clear   74 41     30%   73          
Aug 24 00:18 Calm   Clear   74 41     30%   73          
Aug 24 00:12 Calm   Clear   75 41     30%   74          
Aug 24 00:09 Calm   Clear   75 41     30%   74          
Aug 24 00:00 Calm   Clear   76 41     29%   75          
Aug 23 23:51 Calm   Clear   76 41     28%   75          
Aug 23 23:45 Calm   Clear   77 40     27%   76          
Aug 23 23:42 WSW 1   Clear   77 40     27%   76          
Aug 23 23:39 Calm   Clear   78 41     27%   77          
Aug 23 23:33 SW 2   Clear   78 41     27%   77          
Aug 23 23:27 WSW 4   Clear   78 41     27%   77          
Aug 23 23:11 W 5   Clear   78 41     27%   77          
Aug 23 23:05 WSW 6   Clear   79 42     27%   78          
Aug 23 22:53 WSW 7   Clear   79 41     26%   78          
Aug 23 22:35 WSW 7   Clear   79 42     27%   78          
Aug 23 22:29 WSW 8   Clear   79 43     28%   78          
Aug 23 22:14 W 7   Clear   79 44     29%   78          
Aug 23 22:07 WSW 6   Clear   79 44     29%   78          
Aug 23 22:01 WSW 6   Clear   79 44     29%   78          
Aug 23 21:58 WSW 6   Clear   79 44     29%   78          
Aug 23 21:34 WSW 6   Clear   79 42     27%   78          
Aug 23 18:51 WSW 11   Clear   90 42     19%   86          
Aug 23 18:42 WSW 9   Clear   91 42     18%   87          
Aug 23 18:35 WSW 9   Clear   92 41     17%   88          
Aug 23 18:29 WSW 7   Clear   92 41     17%   88          
Aug 23 15:26 SE 12   Clear   100        %              
Aug 23 15:11 S 4   Clear   100        %              
Aug 23 15:02 SE 9   Clear   100        %              
Aug 23 14:41     Clear   99        %              
Aug 23 14:32 SE 12   Clear   99        %              
Aug 23 14:23 SSE 14   Clear   99        %              
Aug 23 14:14 SE 13   Clear   99        %              
Aug 23 13:56 SE 10   Clear   99        %              
Aug 23 12:45 N 2   Clear   97 40     14%   92          
Aug 23 10:58 SSE 2   Clear   91        %              
Aug 23 10:52 ESE 2   Clear   91        %              
Aug 23 10:49 ESE 1   Clear   91        %              
Aug 23 10:43 Calm   Clear   90 45     21%   86          
Aug 23 10:34 Calm   Clear   89 45     22%   86          
Aug 23 10:28 W 1   Clear   90 45     21%   86          
Aug 23 10:19 NNE 1   Clear   90 45     21%   86          
Aug 23 10:13 NW 2   Clear   89 44     21%   85          
Aug 23 10:04 NNE 1   Clear   89 44     21%   85          
Aug 23 09:58 NE 1   Clear   89 43     20%   85          
Aug 23 09:49 Calm   Clear   88 43     21%   85          
Aug 23 09:43 ENE 2   Clear   87 42     21%   84          
Aug 23 09:37 ENE 2   Clear   86 41     21%   83          
Aug 23 09:34 ENE 1   Clear   85 42     22%   82          
Aug 23 09:28 Calm   Clear   86 43     22%   83          
Aug 23 09:04 E 2   Clear   84 40     21%   81          
Aug 23 08:55 ENE 3   Clear   83 39     21%   81          
Aug 23 08:32 E 3   Clear   79 37     22%   78          
Aug 23 08:29 E 4   Clear   79 37     22%   78          
Aug 23 08:18 E 2   Clear   77 37     24%   76          
Aug 23 08:05 E 2   Clear   75 38     26%   73          
Aug 23 07:59 E 2   Clear   74 38     27%   72          
Aug 23 07:18 E 2   Clear   65 37     35%              
Aug 23 07:12 E 3   Clear   64 37     36%              
Aug 23 07:00 ESE 3   Clear   63 35     35%              
Aug 23 06:57 ESE 2   Clear   63 35     35%              
Aug 23 06:54 ESE 3   Clear   62 35     36%              
Aug 23 06:48 Calm   Clear   62 35     37%              
Aug 23 06:42 Calm   Clear   61 35     37%              
Aug 23 06:39 ESE 2   Clear   61 35     37%              
Aug 23 06:33 E 3   Clear   61 35     38%              
Aug 23 06:27 SE 1   Clear   61 35     37%              
Aug 23 06:24 SE 2   Clear   61 35     38%              
Aug 23 06:18 SE 1   Clear   61 35     38%              
Aug 23 06:12 Calm   Clear   61 35     38%              
Aug 23 06:09 Calm   Clear   62 35     37%              
Aug 23 06:03 Calm   Clear   62 35     36%              
Aug 23 05:51 SE 2   Clear   62 35     37%              
Aug 23 05:38 SE 1   Clear   63 38     39%              
Aug 23 05:32 Calm   Clear   63 38     40%              
Aug 23 05:29 Calm   Clear   63 38     39%              
Aug 23 05:23 Calm   Clear   63 37     38%              
Aug 23 05:17 Calm   Clear   63 37     38%              
Aug 23 05:14 SE 1   Clear   64 38     38%              
Aug 23 05:08 Calm   Clear   63 37     38%              
Aug 23 05:02 Calm   Clear   63 37     38%              
Aug 23 04:59 Calm   Clear   63 37     38%              
Aug 23 04:53 Calm   Clear   63 37     38%              
Aug 23 04:47 Calm   Clear   63 37     38%              
Aug 23 04:44 ENE 1   Clear   63 36     37%              
Aug 23 04:38 Calm   Clear   64 37     37%              
Aug 23 04:32 Calm   Clear   64 37     37%              
Aug 23 04:29 Calm   Clear   64 37     36%              
Aug 23 04:23 ENE 1   Clear   64 37     36%              
Aug 23 04:17 ENE 1   Clear   64 37     36%              
Aug 23 04:14 Calm   Clear   65 37     35%              
Aug 23 04:08 ENE 3   Clear   65 37     35%              
Aug 23 04:02 ENE 2   Clear   65 36     34%              
Aug 23 03:59 ENE 2   Clear   65 36     34%              
Aug 23 03:53 ENE 1   Clear   66 37     34%              
Aug 23 03:47 ENE 2   Clear   66 36     33%              
Aug 23 03:44 ENE 3   Clear   66 36     33%              
Aug 23 03:38 Calm   Clear   67 36     32%              
Aug 23 03:32 ENE 2   Clear   68 36     31%              
Aug 23 03:29 ENE 1   Clear   68 36     31%              
Aug 23 03:23 E 1   Clear   69 37     31%              
Aug 23 03:15 E 2   Clear   70 37     30%              
Aug 23 03:09 E 3   Clear   71 39     31%   69          
Aug 23 03:03 ESE 5   Clear   71 40     32%   69          
Aug 23 03:00 E 5   Clear   71 39     31%   69          
Aug 23 02:54 E 5   Clear   71 37     29%   69          
Aug 23 02:48 ESE 3   Clear   71 39     31%   69          
Aug 23 02:45 E 4   Clear   70 37     30%              
Aug 23 02:39 E 1   Clear   70 35     28%              
Aug 23 02:33 E 1   Clear   69 35     29%              
Aug 23 02:30 E 4   Clear   69 36     30%              
Aug 23 02:23 ENE 3   Clear   69 36     30%              
Aug 23 02:20 NE 2   Clear   69 37     31%              
Aug 23 02:14 SSW 2   Clear   69 36     30%              
Aug 23 02:05 SSW 1   Clear   70 37     30%              
Aug 23 01:59 Calm   Clear   70 37     30%              
Aug 23 01:53 Calm   Clear   71 37     29%   69          
Aug 23 01:50 Calm   Clear   71 37     29%   69          
Aug 23 01:42 WSW 2   Clear   72 36     27%   70          
Aug 23 01:39 W 1   Clear   72 36     27%   70          
Aug 23 01:33 WSW 2   Clear   73 37     27%   71          
Aug 23 01:27 WSW 4   Clear   73 37     27%   71          
Aug 23 01:24 WSW 4   Clear   73 37     27%   71          
Aug 23 01:18 WSW 7   Clear   72 37     28%   70          
Aug 23 01:12 W 3   Clear   72 38     29%   70          
Aug 23 01:09 W 6   Clear   72 38     29%   70          
Aug 23 01:03 W 3   Clear   73 38     28%   71          
Aug 23 00:57 W 2   Clear   73 37     27%   71          
Aug 23 00:54 WSW 5   Clear   73 38     28%   71          
Aug 23 00:48 WSW 3   Clear   72 39     30%   70          
Aug 23 00:42 W 5   Clear   72 40     31%   70          
Aug 23 00:39 W 6   Clear   72 40     31%   70          
Aug 23 00:32 W 6   Clear   72 39     30%   70          
Aug 23 00:29 WNW 6   Clear   73 40     30%   71          
Aug 23 00:23 WNW 6   Clear   73 39     29%   71          
Aug 23 00:17 WNW 6   Clear   74 39     28%   72          
Aug 23 00:14 W 5   Clear   74 38     27%   72          
Aug 23 00:08 W 4   Clear   75 39     27%   73          
Aug 23 00:02 WSW 5   Clear   75 38     26%   73          
Aug 22 23:59 WSW 6   Clear   75 38     26%   73          
Aug 22 23:53 WSW 5   Clear   76 39     26%   75          
Aug 22 23:47 W 4   Clear   76 39     26%   75          
Aug 22 23:44 WSW 6   Clear   76 39     26%   75          
Aug 22 23:35 SW 7   Clear   76 38     25%   74          
Aug 22 23:32 SW 7   Clear   76 38     25%   74          
Aug 22 23:29 SW 7   Clear   77 38     25%   76          
Aug 22 23:23 SW 9   Clear   77 37     24%   76          
Aug 22 23:14 WSW 10   Clear   77 35     22%   75          
Aug 22 23:08 WSW 11   Clear   78 36     22%   77          
Aug 22 22:47 SW 12   Clear   78 38     24%   77          
Aug 22 22:44 SW 10   Clear   78 38     24%   77          
Aug 22 22:38 SW 9   Clear   78 36     22%   77          
Aug 22 22:15 WSW 9   Clear   78 39     25%   77          
Aug 22 22:06 SW 11   Clear   78 39     25%   77          
Aug 22 22:03 WSW 8   Clear   78 40     26%   77          
Aug 22 21:57 WSW 7   Clear   78 40     26%   77          
Aug 22 21:54 WSW 8   Clear   78 41     27%   77          
Aug 22 21:48 WSW 8   Clear   79 42     27%   78          
Aug 22 21:45 WSW 9   Clear   79 42     27%   78          
Aug 22 21:39 WSW 11   Clear   79 42     27%   78          
Aug 22 21:33 WSW 11   Clear   79 42     27%   78          
Aug 22 21:27 WSW 10   Clear   80 43     27%   79          
Aug 22 21:18 WSW 12   Clear   80 43     27%   79          
May 15 11:16 SW 4   Clear   76 46     34%   75 29.98        
May 15 10:43 NW 6   Clear   73 47     39%   72 29.98        
May 15 09:55 WSW 4   Clear   69 47     46%     29.98        
May 15 07:55 WSW 8   Clear   61 46     58%     29.98        
May 15 06:09 W 4   Clear   51 43     73%     29.94        
May 15 05:44 WNW 1   Clear   51 42     71%     29.94        
May 15 05:38 WNW 2   Clear   51 42     71%     29.94        
May 15 04:33 WNW 3   Clear   53 42     65%     29.93        
May 15 00:18 WSW 9   Clear   60 43     54%     29.93        
May 14 23:12 WSW 9   Clear   61 43     52%     29.92        
May 14 22:48 WSW 9   Clear   62 44     52%     29.91        
May 14 22:07 WSW 9   Clear   62 45     53%     29.92        
May 14 21:07 WSW 13   Clear   64 45     50%     29.9        
May 14 20:19 WSW 7   Clear   67 46     47%     29.88        
Notice The following observation data may not be complete
May 14 19:58 W 10   Clear     46      %     29.87        
May 14 18:52 WSW 13   Clear   73 43     34%   72 29.85        
May 14 18:13 WSW 11   Clear   77 43     30%   76 29.85        
May 14 16:33     Clear   83 40     22%   81 29.83        
May 14 15:27 W 13   Clear   84 39     20%   81 29.85        
May 14 12:48 E 5   Clear   80 42     26%   79 29.91        
May 14 10:47 Calm   Clear   72 44     37%   71 29.94        
May 14 08:13 WSW 6   Clear   61 44     54%     29.92        
May 14 06:12 W 5   Clear   54 44     68%     29.89        
May 14 04:03 WSW 11   Clear   55 45     68%     29.9        
May 14 01:52 SW 10   Clear   57 43     60%     29.9        
May 14 01:43 SW 9   Clear   57 43     60%     29.9        
May 13 23:17 SW 10   Clear   60 43     53%     29.9        
May 13 21:38 SW 9   Clear   62 44     51%     29.91        
Notice The following observation data may not be complete
May 13 19:59 WSW 13   Clear     44      %     29.88        
May 13 18:50 WSW 14   Clear   70 43     37%     29.86        
May 13 18:44 WSW 13   Clear   71 43     36%   69 29.87        
May 13 18:08 SW 10   Clear   74 42     32%   73 29.86        
May 13 17:47 WSW 11   Clear   74 41     31%   73 29.86        
Notice The following observation data may not be complete
May 13 15:03     Clear            %              
May 13 14:48 SW 10   Clear   74 40     29%   72 29.9        
May 13 13:54 SW 3   Clear   76 39     26%   75 29.92        
May 13 12:33 SW 4   Clear   73 39     29%   71 29.94        
May 13 12:15 W 4   Clear   73 40     30%   71 29.94        
May 13 12:00 WSW 3   Clear   72 41     32%   70 29.94        
May 13 11:45 SSW 6   Clear   72 41     33%   70 29.94        
May 13 09:53 SW 9   Clear   65 43     44%     29.95        
May 13 08:32 WSW 8   Clear   59 44     58%     29.95        
Notice The following observation data may not be complete
May 13 07:59     Clear            %              
May 13 06:17 WSW 10   Clear   51 43     74%     29.91        
May 13 05:47 WSW 10   Clear   51 43     75%     29.91        
May 13 01:38 WSW 7   Clear   52 44     73%     29.91        
May 13 00:51 WSW 9   Clear   53 44     71%     29.91        
May 12 23:39 SW 16   Clear   55 45     68%     29.91        
May 12 23:18 SW 13   Clear   55 45     68%     29.91        
May 12 23:03 SW 14   Clear   55 44     67%     29.9        
May 12 21:08 WSW 11   Clear   57 44     62%     29.88        
May 12 19:54 WSW 16   Clear   60 44     56%     29.85        
May 12 17:55 WSW 14   Clear   69 43     39%     29.82        
May 12 17:25 WSW 14   Clear   70 43     37%     29.83        
May 12 15:43 WSW 17   Clear   73 38     28%   71 29.82        
May 12 13:31 WSW 13   Clear   74 37     26%   72 29.85        
May 12 11:03 W 12   Clear   67 41     38%     29.88        
May 12 09:48 SW 10   Clear   63 41     44%     29.88        
May 12 06:18 WSW 9   Clear   51 44     77%     29.83        
May 12 06:03 W 8   Clear   51 44     76%     29.83        
May 12 05:39 W 6   Clear   51 43     75%     29.81        
May 12 02:58 WSW 12   Clear   54 44     69%     29.77        
May 12 02:44 WSW 12   Clear   54 44     68%     29.77        
May 12 02:06 WSW 11   Clear   54 44     68%     29.79        
May 11 22:29 WSW 11   Clear   56 45     67%     29.76        
May 11 22:14 WSW 10   Clear   56 45     67%     29.75        
May 11 22:02 SW 14   Clear   56 45     67%     29.75        
May 11 21:29 SW 13   Clear   57 46     66%     29.72        
Notice The following observation data may not be complete
May 11 19:29 SW 21   Clear and Windy     47      %     29.65        
May 11 19:09 SW 23   Clear and Windy   61 47     61%     29.65        
May 11 18:18 WSW 25   Clear and Windy   64 47     55%     29.63        
May 11 17:10 WSW 21   Clear and Windy   67 47     49%     29.65        
May 11 16:34 WSW 22   Clear and Windy   69 47     46%     29.64        
May 11 13:30 WSW 18   Clear   74 46     37%   73 29.66        
May 11 13:09 WSW 23   Clear and Windy   74 45     36%   73 29.67        
May 11 12:57 WSW 19   Clear   75 45     35%   74 29.67        
May 11 12:08 WSW 17   Clear   75 46     36%   74 29.69        
May 11 09:17 WSW 20   Clear and Windy   70 45     40%     29.71        
May 11 08:23 WSW 13   Clear   66 43     44%     29.72        
Jun 12 05:06 W 10   Clear   48 35     61% 44   29.95        
Jun 12 04:32 W 8   Clear   49 35     58% 46   29.94        
Jun 12 04:08 W 15   Clear   49 36     60% 43   29.93        
Jun 12 02:29 WNW 18   Clear   51 34     52%     29.94        
Jun 11 22:23 WSW 10   Clear   55 45     70%     29.91        
Jun 11 19:34 WNW 17   Clear   63 33     32%     29.84        
Jun 11 13:28 W 19   Clear   68 45     43%     29.81        
Jun 11 11:58 W 18   Clear   67 45     45%     29.8        
Jun 11 09:15 WSW 18   Clear   61 43     51%     29.8        
Jun 11 08:39 WSW 19   Clear   60 43     53%     29.78        
Jun 11 08:30 WSW 17   Clear   60 42     51%     29.78        
Jun 11 07:50 WSW 20   Clear and Windy   56 41     57%     29.78        
Jun 11 07:14 WSW 17   Clear   54 42     63%     29.78        
Jun 11 07:05 WSW 17   Clear   53 41     64%     29.78        
Jun 11 01:02 WSW 15   Clear   59 44     58%     29.76        
Jun 11 00:53 WSW 17   Clear   59 45     59%              
Jun 11 00:47 WSW 20   Clear and Windy   59 44     58%     29.75        
Jun 11 00:32 WSW 18   Clear   60 44     56%              
Jun 11 00:23 WSW 22   Clear and Windy   60 44     56%     29.74        
Jun 11 00:05 SW 12   Clear   60 45     58%              
Jun 10 23:38 WSW 20   Clear and Windy   60 46     59%              
Jun 10 23:23 WSW 19   Clear   61 47     59%              
Jun 10 23:20 WSW 17   Clear   61 47     59%     29.76        
Jun 10 22:17 WSW 15   Clear   61 48     63%     29.78        
Jun 10 21:32 WSW 18   Clear   62 49     62%              
Jun 10 20:38 WSW 18   Clear   63 49     60%     29.76        
Jun 10 19:38 WSW 18   Clear   67 48     50%              
Jun 10 19:32 WSW 16   Clear   67 48     50%     29.75        
Jun 10 18:03 WSW 23   Clear and Windy   70 49     48%     29.74        
Jun 10 17:54 WSW 21   Clear and Windy   71 50     48%   70          
Jun 10 14:16 WSW 16   Clear   75 47     37%   74 29.75        
Jun 10 13:13 W 14   Clear   75 45     34%   74 29.79        
Jun 10 11:43 W 20   Clear and Windy   73 47     39%   72 29.8        
Jun 10 09:34 W 16   Clear   69 48     47%     29.82        
Jun 10 07:33 WSW 9   Clear   61 50     67%     29.81        
Jun 10 00:22 SW 14   Clear   62 52     70%     29.83        
Jun 09 21:04 SW 12   Clear   69 54     58%     29.81        
Notice The following observation data may not be complete
Jun 09 19:40     Clear            %              
Jun 09 18:15 WSW 19   Clear   79 53     40%   78 29.78        
Jun 09 16:42 WSW 15   Clear   83 50     32%   81 29.78        
Jun 09 14:13 SW 19   Clear   84 50     31%   82 29.82        
Jun 09 13:16 WSW 14   Clear   84 49     30%   82 29.87        
Jun 09 13:04 WSW 15   Clear   84 48     29%   82 29.87        
Jun 09 07:27 WSW 8   Clear   65 43     45%     29.89        
Jun 09 07:24 WSW 10   Clear   65 43     45%     29.89        
Jun 09 03:42 SW 10   Clear   63 41     44%     29.88        
Jun 09 00:27 SW 10   Clear   69 33     26%     29.88        
Notice The following observation data may not be complete
Jun 08 23:40     Clear            %              
Jun 08 21:53 W 7   Clear   73 28     19%   71 29.9        
Jun 08 17:37 W 17   Clear   87 37     17%   84 29.88        
Jun 08 09:39 WSW 11   Clear   76 43     31%   75 29.95        
Jun 08 09:12 SW 10   Clear   75 44     33%   74 29.95        
Jun 08 08:27 WSW 9   Clear   70 45     40%     29.95        
Jun 08 08:18 WSW 9   Clear   69 45     42%     29.95        
Jun 08 05:53 SW 9   Clear   63 44     50%     29.93        
Jun 08 05:49 WSW 10   Clear   63 44     50%     29.93        
Jun 08 03:43 WSW 8   Clear   66 43     43%     29.91        
Jun 08 02:50 WSW 11   Clear   67 42     40%     29.91        
Jun 07 22:38 SW 16   Clear   71 40     33%   69 29.89        
Jun 07 20:15 W 8   Clear   79 30     17%   77 29.86        
Jun 07 19:03 WSW 16   Clear   85 25     11%   82 29.84        
Jun 07 18:48 WSW 17   Clear   86 27     12%   82          
Jun 07 11:34 SW 5   Clear   90 31     12%   86 29.91        
Jun 07 07:32 WSW 5   Clear   74 41     30%   73 29.91        
Jun 07 06:44 Calm   Clear   68 39     34%     29.87        
Jun 05 22:28 WSW 8   Clear   75 41     30%   74 29.89        
Jun 05 20:25 WSW 9   Clear   84 44     25%   82 29.86        
Jun 05 13:31 W 7   Clear   96 31     10%   90 29.86        
Jun 05 13:01 WNW 7   Clear   97 31     10%   91 29.87